sensor_id;sensor_type;location;lat;lon;timestamp;P1;durP1;ratioP1;P2;durP2;ratioP2
11531;SDS011;5822;51.000;5.874;2024-01-16T00:01:26;24.40;;;22.58;;
11531;SDS011;5822;51.000;5.874;2024-01-16T00:03:52;23.00;;;21.20;;
11531;SDS011;5822;51.000;5.874;2024-01-16T00:06:17;22.33;;;20.63;;
11531;SDS011;5822;51.000;5.874;2024-01-16T00:08:43;22.52;;;20.80;;
11531;SDS011;5822;51.000;5.874;2024-01-16T00:11:10;22.70;;;21.00;;
11531;SDS011;5822;51.000;5.874;2024-01-16T00:13:36;22.90;;;21.20;;
11531;SDS011;5822;51.000;5.874;2024-01-16T00:16:02;23.02;;;21.33;;
11531;SDS011;5822;51.000;5.874;2024-01-16T00:18:28;23.27;;;21.37;;
11531;SDS011;5822;51.000;5.874;2024-01-16T00:20:54;23.27;;;21.58;;
11531;SDS011;5822;51.000;5.874;2024-01-16T00:23:20;23.80;;;22.10;;
11531;SDS011;5822;51.000;5.874;2024-01-16T00:25:46;23.93;;;22.23;;
11531;SDS011;5822;51.000;5.874;2024-01-16T00:28:11;23.47;;;21.77;;
11531;SDS011;5822;51.000;5.874;2024-01-16T00:30:37;23.42;;;21.83;;
11531;SDS011;5822;51.000;5.874;2024-01-16T00:33:03;22.88;;;21.20;;
11531;SDS011;5822;51.000;5.874;2024-01-16T00:35:29;22.48;;;20.75;;
11531;SDS011;5822;51.000;5.874;2024-01-16T00:37:54;22.10;;;20.40;;
11531;SDS011;5822;51.000;5.874;2024-01-16T00:40:20;22.13;;;20.53;;
11531;SDS011;5822;51.000;5.874;2024-01-16T00:42:46;21.60;;;19.98;;
11531;SDS011;5822;51.000;5.874;2024-01-16T00:45:11;22.13;;;20.50;;
11531;SDS011;5822;51.000;5.874;2024-01-16T00:47:37;22.63;;;20.85;;
11531;SDS011;5822;51.000;5.874;2024-01-16T00:50:03;22.33;;;20.63;;
11531;SDS011;5822;51.000;5.874;2024-01-16T00:52:29;23.17;;;21.38;;
11531;SDS011;5822;51.000;5.874;2024-01-16T00:54:55;23.75;;;21.85;;
11531;SDS011;5822;51.000;5.874;2024-01-16T00:57:20;23.23;;;21.42;;
11531;SDS011;5822;51.000;5.874;2024-01-16T00:59:46;26.87;;;24.87;;
11531;SDS011;5822;51.000;5.874;2024-01-16T01:02:12;25.90;;;24.10;;
11531;SDS011;5822;51.000;5.874;2024-01-16T01:04:39;26.33;;;24.52;;
11531;SDS011;5822;51.000;5.874;2024-01-16T01:07:06;26.23;;;24.42;;
11531;SDS011;5822;51.000;5.874;2024-01-16T01:09:32;22.35;;;20.65;;
11531;SDS011;5822;51.000;5.874;2024-01-16T01:11:58;22.50;;;20.80;;
11531;SDS011;5822;51.000;5.874;2024-01-16T01:14:23;22.70;;;20.90;;
11531;SDS011;5822;51.000;5.874;2024-01-16T01:16:50;22.67;;;20.98;;
11531;SDS011;5822;51.000;5.874;2024-01-16T01:19:16;22.77;;;20.98;;
11531;SDS011;5822;51.000;5.874;2024-01-16T01:21:42;23.15;;;21.38;;
11531;SDS011;5822;51.000;5.874;2024-01-16T01:24:08;22.80;;;21.00;;
11531;SDS011;5822;51.000;5.874;2024-01-16T01:26:34;23.98;;;22.08;;
11531;SDS011;5822;51.000;5.874;2024-01-16T01:29:00;23.30;;;21.50;;
11531;SDS011;5822;51.000;5.874;2024-01-16T01:31:26;23.80;;;22.00;;
11531;SDS011;5822;51.000;5.874;2024-01-16T01:33:52;24.13;;;22.30;;
11531;SDS011;5822;51.000;5.874;2024-01-16T01:36:17;23.70;;;21.80;;
11531;SDS011;5822;51.000;5.874;2024-01-16T01:38:43;22.27;;;20.53;;
11531;SDS011;5822;51.000;5.874;2024-01-16T01:41:09;23.40;;;21.42;;
11531;SDS011;5822;51.000;5.874;2024-01-16T01:43:37;22.92;;;21.13;;
11531;SDS011;5822;51.000;5.874;2024-01-16T01:48:37;23.00;;;21.20;;
11531;SDS011;5822;51.000;5.874;2024-01-16T01:51:04;23.27;;;21.48;;
11531;SDS011;5822;51.000;5.874;2024-01-16T01:53:31;23.52;;;21.63;;
11531;SDS011;5822;51.000;5.874;2024-01-16T01:56:00;22.90;;;21.20;;
11531;SDS011;5822;51.000;5.874;2024-01-16T01:58:29;22.77;;;21.00;;
11531;SDS011;5822;51.000;5.874;2024-01-16T02:00:55;22.70;;;21.00;;
11531;SDS011;5822;51.000;5.874;2024-01-16T02:03:21;23.20;;;21.40;;
11531;SDS011;5822;51.000;5.874;2024-01-16T02:05:51;23.67;;;21.77;;
11531;SDS011;5822;51.000;5.874;2024-01-16T02:08:21;24.67;;;22.77;;
11531;SDS011;5822;51.000;5.874;2024-01-16T02:10:47;23.80;;;21.90;;
11531;SDS011;5822;51.000;5.874;2024-01-16T02:13:15;23.77;;;21.98;;
11531;SDS011;5822;51.000;5.874;2024-01-16T02:15:43;23.55;;;21.75;;
11531;SDS011;5822;51.000;5.874;2024-01-16T02:18:09;22.70;;;21.00;;
11531;SDS011;5822;51.000;5.874;2024-01-16T02:20:35;23.73;;;21.88;;
11531;SDS011;5822;51.000;5.874;2024-01-16T02:23:03;23.93;;;22.13;;
11531;SDS011;5822;51.000;5.874;2024-01-16T02:25:31;23.60;;;21.80;;
11531;SDS011;5822;51.000;5.874;2024-01-16T02:27:57;23.65;;;21.85;;
11531;SDS011;5822;51.000;5.874;2024-01-16T02:30:22;24.40;;;22.48;;
11531;SDS011;5822;51.000;5.874;2024-01-16T02:32:48;24.58;;;22.67;;
11531;SDS011;5822;51.000;5.874;2024-01-16T02:35:13;23.70;;;21.90;;
11531;SDS011;5822;51.000;5.874;2024-01-16T02:37:40;22.98;;;21.27;;
11531;SDS011;5822;51.000;5.874;2024-01-16T02:40:06;23.50;;;21.70;;
11531;SDS011;5822;51.000;5.874;2024-01-16T02:42:35;23.90;;;22.00;;
11531;SDS011;5822;51.000;5.874;2024-01-16T02:45:02;23.43;;;21.73;;
11531;SDS011;5822;51.000;5.874;2024-01-16T02:47:29;23.42;;;21.65;;
11531;SDS011;5822;51.000;5.874;2024-01-16T02:49:55;23.63;;;21.88;;
11531;SDS011;5822;51.000;5.874;2024-01-16T02:52:20;23.10;;;21.40;;
11531;SDS011;5822;51.000;5.874;2024-01-16T02:54:46;23.20;;;21.40;;
11531;SDS011;5822;51.000;5.874;2024-01-16T02:57:12;23.37;;;21.57;;
11531;SDS011;5822;51.000;5.874;2024-01-16T02:59:37;22.98;;;21.27;;
11531;SDS011;5822;51.000;5.874;2024-01-16T03:02:03;22.27;;;20.58;;
11531;SDS011;5822;51.000;5.874;2024-01-16T03:04:29;22.70;;;21.00;;
11531;SDS011;5822;51.000;5.874;2024-01-16T03:06:55;23.45;;;21.65;;
11531;SDS011;5822;51.000;5.874;2024-01-16T03:09:21;24.48;;;22.58;;
11531;SDS011;5822;51.000;5.874;2024-01-16T03:11:47;24.48;;;22.58;;
11531;SDS011;5822;51.000;5.874;2024-01-16T03:14:13;23.50;;;21.70;;
11531;SDS011;5822;51.000;5.874;2024-01-16T03:16:39;23.52;;;21.73;;
11531;SDS011;5822;51.000;5.874;2024-01-16T03:19:05;23.50;;;21.70;;
11531;SDS011;5822;51.000;5.874;2024-01-16T03:21:31;23.35;;;21.55;;
11531;SDS011;5822;51.000;5.874;2024-01-16T03:23:57;23.48;;;21.67;;
11531;SDS011;5822;51.000;5.874;2024-01-16T03:26:23;24.00;;;22.10;;
11531;SDS011;5822;51.000;5.874;2024-01-16T03:28:48;24.05;;;22.23;;
11531;SDS011;5822;51.000;5.874;2024-01-16T03:31:14;23.45;;;21.55;;
11531;SDS011;5822;51.000;5.874;2024-01-16T03:33:39;23.23;;;21.45;;
11531;SDS011;5822;51.000;5.874;2024-01-16T03:36:07;23.25;;;21.55;;
11531;SDS011;5822;51.000;5.874;2024-01-16T03:38:34;23.43;;;21.63;;
11531;SDS011;5822;51.000;5.874;2024-01-16T03:41:04;23.80;;;22.00;;
11531;SDS011;5822;51.000;5.874;2024-01-16T03:43:32;23.30;;;21.50;;
11531;SDS011;5822;51.000;5.874;2024-01-16T03:45:59;23.13;;;21.42;;
11531;SDS011;5822;51.000;5.874;2024-01-16T03:48:25;23.50;;;21.80;;
11531;SDS011;5822;51.000;5.874;2024-01-16T03:50:51;24.07;;;22.37;;
11531;SDS011;5822;51.000;5.874;2024-01-16T03:53:16;23.90;;;22.20;;
11531;SDS011;5822;51.000;5.874;2024-01-16T03:55:42;23.63;;;21.83;;
11531;SDS011;5822;51.000;5.874;2024-01-16T03:58:08;23.00;;;21.30;;
11531;SDS011;5822;51.000;5.874;2024-01-16T04:00:40;21.83;;;20.20;;
11531;SDS011;5822;51.000;5.874;2024-01-16T04:03:06;22.75;;;21.05;;
11531;SDS011;5822;51.000;5.874;2024-01-16T04:05:32;22.37;;;20.67;;
11531;SDS011;5822;51.000;5.874;2024-01-16T04:07:58;22.65;;;20.88;;
11531;SDS011;5822;51.000;5.874;2024-01-16T04:10:24;23.58;;;21.77;;
11531;SDS011;5822;51.000;5.874;2024-01-16T04:12:52;23.70;;;21.90;;
11531;SDS011;5822;51.000;5.874;2024-01-16T04:15:18;24.02;;;22.23;;
11531;SDS011;5822;51.000;5.874;2024-01-16T04:17:43;22.58;;;20.88;;
11531;SDS011;5822;51.000;5.874;2024-01-16T04:20:09;22.60;;;20.90;;
11531;SDS011;5822;51.000;5.874;2024-01-16T04:22:35;22.35;;;20.65;;
11531;SDS011;5822;51.000;5.874;2024-01-16T04:25:04;22.83;;;21.13;;
11531;SDS011;5822;51.000;5.874;2024-01-16T04:27:31;23.23;;;21.52;;
11531;SDS011;5822;51.000;5.874;2024-01-16T04:29:57;23.20;;;21.40;;
11531;SDS011;5822;51.000;5.874;2024-01-16T04:32:23;23.10;;;21.30;;
11531;SDS011;5822;51.000;5.874;2024-01-16T04:34:49;22.75;;;21.05;;
11531;SDS011;5822;51.000;5.874;2024-01-16T04:37:15;22.57;;;20.87;;
11531;SDS011;5822;51.000;5.874;2024-01-16T04:39:41;21.77;;;20.17;;
11531;SDS011;5822;51.000;5.874;2024-01-16T04:42:06;21.92;;;20.33;;
11531;SDS011;5822;51.000;5.874;2024-01-16T04:44:32;22.75;;;21.05;;
11531;SDS011;5822;51.000;5.874;2024-01-16T04:46:57;22.60;;;20.90;;
11531;SDS011;5822;51.000;5.874;2024-01-16T04:49:23;22.83;;;21.13;;
11531;SDS011;5822;51.000;5.874;2024-01-16T04:51:49;22.57;;;20.87;;
11531;SDS011;5822;51.000;5.874;2024-01-16T04:54:14;22.47;;;20.77;;
11531;SDS011;5822;51.000;5.874;2024-01-16T04:56:40;22.40;;;20.80;;
11531;SDS011;5822;51.000;5.874;2024-01-16T04:59:06;22.63;;;20.92;;
11531;SDS011;5822;51.000;5.874;2024-01-16T05:01:31;23.08;;;21.30;;
11531;SDS011;5822;51.000;5.874;2024-01-16T05:03:57;22.38;;;20.58;;
11531;SDS011;5822;51.000;5.874;2024-01-16T05:06:22;22.30;;;20.60;;
11531;SDS011;5822;51.000;5.874;2024-01-16T05:08:48;22.77;;;21.08;;
11531;SDS011;5822;51.000;5.874;2024-01-16T05:11:14;22.58;;;20.88;;
11531;SDS011;5822;51.000;5.874;2024-01-16T05:13:39;22.93;;;21.23;;
11531;SDS011;5822;51.000;5.874;2024-01-16T05:16:05;22.43;;;20.83;;
11531;SDS011;5822;51.000;5.874;2024-01-16T05:18:31;22.40;;;20.70;;
11531;SDS011;5822;51.000;5.874;2024-01-16T05:21:00;22.80;;;21.10;;
11531;SDS011;5822;51.000;5.874;2024-01-16T05:23:27;22.20;;;20.50;;
11531;SDS011;5822;51.000;5.874;2024-01-16T05:25:53;22.70;;;21.00;;
11531;SDS011;5822;51.000;5.874;2024-01-16T05:28:21;22.20;;;20.52;;
11531;SDS011;5822;51.000;5.874;2024-01-16T05:30:47;22.98;;;21.27;;
11531;SDS011;5822;51.000;5.874;2024-01-16T05:33:12;23.33;;;21.63;;
11531;SDS011;5822;51.000;5.874;2024-01-16T05:35:38;22.20;;;20.50;;
11531;SDS011;5822;51.000;5.874;2024-01-16T05:38:04;22.27;;;20.57;;
11531;SDS011;5822;51.000;5.874;2024-01-16T05:40:29;21.90;;;20.20;;
11531;SDS011;5822;51.000;5.874;2024-01-16T05:42:55;22.07;;;20.40;;
11531;SDS011;5822;51.000;5.874;2024-01-16T05:45:21;22.08;;;20.42;;
11531;SDS011;5822;51.000;5.874;2024-01-16T05:47:47;22.13;;;20.43;;
11531;SDS011;5822;51.000;5.874;2024-01-16T05:50:12;22.03;;;20.33;;
11531;SDS011;5822;51.000;5.874;2024-01-16T05:52:38;22.30;;;20.50;;
11531;SDS011;5822;51.000;5.874;2024-01-16T05:55:05;22.40;;;20.70;;
11531;SDS011;5822;51.000;5.874;2024-01-16T05:57:32;23.13;;;21.33;;
11531;SDS011;5822;51.000;5.874;2024-01-16T05:59:58;22.30;;;20.60;;
11531;SDS011;5822;51.000;5.874;2024-01-16T06:02:27;22.20;;;20.50;;
11531;SDS011;5822;51.000;5.874;2024-01-16T06:04:53;22.60;;;20.80;;
11531;SDS011;5822;51.000;5.874;2024-01-16T06:07:19;22.27;;;20.57;;
11531;SDS011;5822;51.000;5.874;2024-01-16T06:09:44;22.40;;;20.70;;
11531;SDS011;5822;51.000;5.874;2024-01-16T06:12:13;22.30;;;20.60;;
11531;SDS011;5822;51.000;5.874;2024-01-16T06:14:38;22.93;;;21.13;;
11531;SDS011;5822;51.000;5.874;2024-01-16T06:17:04;23.07;;;21.27;;
11531;SDS011;5822;51.000;5.874;2024-01-16T06:19:33;22.73;;;20.92;;
11531;SDS011;5822;51.000;5.874;2024-01-16T06:21:59;22.98;;;21.13;;
11531;SDS011;5822;51.000;5.874;2024-01-16T06:24:25;22.83;;;21.02;;
11531;SDS011;5822;51.000;5.874;2024-01-16T06:26:51;22.60;;;20.90;;
11531;SDS011;5822;51.000;5.874;2024-01-16T06:29:16;23.17;;;21.40;;
11531;SDS011;5822;51.000;5.874;2024-01-16T06:31:42;22.55;;;20.75;;
11531;SDS011;5822;51.000;5.874;2024-01-16T06:34:08;22.75;;;20.95;;
11531;SDS011;5822;51.000;5.874;2024-01-16T06:36:34;22.33;;;20.63;;
11531;SDS011;5822;51.000;5.874;2024-01-16T06:38:59;22.43;;;20.73;;
11531;SDS011;5822;51.000;5.874;2024-01-16T06:41:25;22.60;;;20.80;;
11531;SDS011;5822;51.000;5.874;2024-01-16T06:43:50;22.50;;;20.70;;
11531;SDS011;5822;51.000;5.874;2024-01-16T06:46:16;22.90;;;21.10;;
11531;SDS011;5822;51.000;5.874;2024-01-16T06:48:42;22.58;;;20.88;;
11531;SDS011;5822;51.000;5.874;2024-01-16T06:51:07;23.77;;;21.98;;
11531;SDS011;5822;51.000;5.874;2024-01-16T06:53:35;23.48;;;21.67;;
11531;SDS011;5822;51.000;5.874;2024-01-16T06:56:01;23.10;;;21.30;;
11531;SDS011;5822;51.000;5.874;2024-01-16T06:58:28;23.05;;;21.27;;
11531;SDS011;5822;51.000;5.874;2024-01-16T07:00:57;22.63;;;20.92;;
11531;SDS011;5822;51.000;5.874;2024-01-16T07:03:23;23.30;;;21.50;;
11531;SDS011;5822;51.000;5.874;2024-01-16T07:05:49;23.20;;;21.40;;
11531;SDS011;5822;51.000;5.874;2024-01-16T07:08:14;22.80;;;21.00;;
11531;SDS011;5822;51.000;5.874;2024-01-16T07:10:40;23.73;;;21.92;;
11531;SDS011;5822;51.000;5.874;2024-01-16T07:13:06;22.90;;;21.20;;
11531;SDS011;5822;51.000;5.874;2024-01-16T07:15:32;24.20;;;22.40;;
11531;SDS011;5822;51.000;5.874;2024-01-16T07:17:58;24.52;;;22.73;;
11531;SDS011;5822;51.000;5.874;2024-01-16T07:20:23;27.80;;;25.90;;
11531;SDS011;5822;51.000;5.874;2024-01-16T07:22:49;26.35;;;24.45;;
11531;SDS011;5822;51.000;5.874;2024-01-16T07:25:15;27.10;;;25.20;;
11531;SDS011;5822;51.000;5.874;2024-01-16T07:27:40;26.63;;;24.73;;
11531;SDS011;5822;51.000;5.874;2024-01-16T07:30:08;26.02;;;24.23;;
11531;SDS011;5822;51.000;5.874;2024-01-16T07:32:34;25.75;;;24.00;;
11531;SDS011;5822;51.000;5.874;2024-01-16T07:34:59;26.20;;;24.40;;
11531;SDS011;5822;51.000;5.874;2024-01-16T07:37:25;26.10;;;24.30;;
11531;SDS011;5822;51.000;5.874;2024-01-16T07:39:50;26.20;;;24.40;;
11531;SDS011;5822;51.000;5.874;2024-01-16T07:42:16;24.10;;;22.30;;
11531;SDS011;5822;51.000;5.874;2024-01-16T07:44:42;24.17;;;22.27;;
11531;SDS011;5822;51.000;5.874;2024-01-16T07:47:08;23.63;;;21.90;;
11531;SDS011;5822;51.000;5.874;2024-01-16T07:49:40;23.00;;;21.30;;
11531;SDS011;5822;51.000;5.874;2024-01-16T07:52:06;24.13;;;22.25;;
11531;SDS011;5822;51.000;5.874;2024-01-16T07:54:32;27.50;;;25.50;;
11531;SDS011;5822;51.000;5.874;2024-01-16T07:56:57;26.60;;;24.70;;
11531;SDS011;5822;51.000;5.874;2024-01-16T07:59:26;26.50;;;24.60;;
11531;SDS011;5822;51.000;5.874;2024-01-16T08:01:51;26.00;;;24.10;;
11531;SDS011;5822;51.000;5.874;2024-01-16T08:04:21;24.90;;;23.10;;
11531;SDS011;5822;51.000;5.874;2024-01-16T08:06:47;24.83;;;23.02;;
11531;SDS011;5822;51.000;5.874;2024-01-16T08:09:13;25.65;;;23.75;;
11531;SDS011;5822;51.000;5.874;2024-01-16T08:11:39;25.67;;;23.77;;
11531;SDS011;5822;51.000;5.874;2024-01-16T08:14:05;25.40;;;23.50;;
11531;SDS011;5822;51.000;5.874;2024-01-16T08:16:31;25.88;;;23.92;;
11531;SDS011;5822;51.000;5.874;2024-01-16T08:18:59;25.50;;;23.60;;
11531;SDS011;5822;51.000;5.874;2024-01-16T08:21:25;24.43;;;22.53;;
11531;SDS011;5822;51.000;5.874;2024-01-16T08:23:51;23.50;;;21.80;;
11531;SDS011;5822;51.000;5.874;2024-01-16T08:26:19;24.10;;;22.30;;
11531;SDS011;5822;51.000;5.874;2024-01-16T08:28:47;23.45;;;21.70;;
11531;SDS011;5822;51.000;5.874;2024-01-16T08:31:16;25.48;;;23.50;;
11531;SDS011;5822;51.000;5.874;2024-01-16T08:33:43;26.08;;;24.17;;
11531;SDS011;5822;51.000;5.874;2024-01-16T08:36:09;27.00;;;25.10;;
11531;SDS011;5822;51.000;5.874;2024-01-16T08:38:35;25.85;;;23.95;;
11531;SDS011;5822;51.000;5.874;2024-01-16T08:41:00;27.20;;;25.20;;
11531;SDS011;5822;51.000;5.874;2024-01-16T08:43:26;26.10;;;24.10;;
11531;SDS011;5822;51.000;5.874;2024-01-16T08:45:52;27.40;;;25.40;;
11531;SDS011;5822;51.000;5.874;2024-01-16T08:48:17;25.50;;;23.60;;
11531;SDS011;5822;51.000;5.874;2024-01-16T08:50:43;26.20;;;24.30;;
11531;SDS011;5822;51.000;5.874;2024-01-16T08:53:10;27.17;;;25.17;;
11531;SDS011;5822;51.000;5.874;2024-01-16T08:55:36;25.43;;;23.53;;
11531;SDS011;5822;51.000;5.874;2024-01-16T08:58:01;24.52;;;22.63;;
11531;SDS011;5822;51.000;5.874;2024-01-16T09:00:27;24.05;;;22.25;;
11531;SDS011;5822;51.000;5.874;2024-01-16T09:02:53;24.27;;;22.38;;
11531;SDS011;5822;51.000;5.874;2024-01-16T09:05:19;23.90;;;22.00;;
11531;SDS011;5822;51.000;5.874;2024-01-16T09:07:53;24.77;;;22.88;;
11531;SDS011;5822;51.000;5.874;2024-01-16T09:10:19;26.55;;;24.65;;
11531;SDS011;5822;51.000;5.874;2024-01-16T09:12:45;26.45;;;24.45;;
11531;SDS011;5822;51.000;5.874;2024-01-16T09:15:10;26.85;;;24.85;;
11531;SDS011;5822;51.000;5.874;2024-01-16T09:17:36;26.38;;;24.38;;
11531;SDS011;5822;51.000;5.874;2024-01-16T09:20:02;26.15;;;24.15;;
11531;SDS011;5822;51.000;5.874;2024-01-16T09:22:27;26.10;;;24.20;;
11531;SDS011;5822;51.000;5.874;2024-01-16T09:24:56;25.92;;;24.02;;
11531;SDS011;5822;51.000;5.874;2024-01-16T09:27:21;26.53;;;24.63;;
11531;SDS011;5822;51.000;5.874;2024-01-16T09:29:47;24.90;;;23.00;;
11531;SDS011;5822;51.000;5.874;2024-01-16T09:32:14;24.92;;;23.02;;
11531;SDS011;5822;51.000;5.874;2024-01-16T09:34:39;25.88;;;23.98;;
11531;SDS011;5822;51.000;5.874;2024-01-16T09:37:05;23.88;;;22.08;;
11531;SDS011;5822;51.000;5.874;2024-01-16T09:39:31;24.50;;;22.60;;
11531;SDS011;5822;51.000;5.874;2024-01-16T09:41:59;24.23;;;22.42;;
11531;SDS011;5822;51.000;5.874;2024-01-16T09:44:28;23.52;;;21.73;;
11531;SDS011;5822;51.000;5.874;2024-01-16T09:46:54;25.17;;;23.27;;
11531;SDS011;5822;51.000;5.874;2024-01-16T09:49:23;26.40;;;24.40;;
11531;SDS011;5822;51.000;5.874;2024-01-16T09:51:49;26.63;;;24.60;;
11531;SDS011;5822;51.000;5.874;2024-01-16T09:54:15;26.90;;;24.90;;
11531;SDS011;5822;51.000;5.874;2024-01-16T09:56:43;26.45;;;24.45;;
11531;SDS011;5822;51.000;5.874;2024-01-16T09:59:12;26.50;;;24.50;;
11531;SDS011;5822;51.000;5.874;2024-01-16T10:01:43;25.08;;;23.27;;
11531;SDS011;5822;51.000;5.874;2024-01-16T10:04:12;25.53;;;23.63;;
11531;SDS011;5822;51.000;5.874;2024-01-16T10:06:38;24.42;;;22.63;;
11531;SDS011;5822;51.000;5.874;2024-01-16T10:09:04;25.02;;;23.20;;
11531;SDS011;5822;51.000;5.874;2024-01-16T10:11:31;24.60;;;22.80;;
11531;SDS011;5822;51.000;5.874;2024-01-16T10:13:59;25.13;;;23.27;;
11531;SDS011;5822;51.000;5.874;2024-01-16T10:19:51;23.48;;;21.67;;
11531;SDS011;5822;51.000;5.874;2024-01-16T10:22:24;22.90;;;21.20;;
11531;SDS011;5822;51.000;5.874;2024-01-16T10:25:06;23.37;;;21.67;;
11531;SDS011;5822;51.000;5.874;2024-01-16T10:27:38;25.63;;;23.73;;
11531;SDS011;5822;51.000;5.874;2024-01-16T10:30:07;25.30;;;23.40;;
11531;SDS011;5822;51.000;5.874;2024-01-16T10:32:37;25.65;;;23.65;;
11531;SDS011;5822;51.000;5.874;2024-01-16T10:35:12;25.38;;;23.48;;
11531;SDS011;5822;51.000;5.874;2024-01-16T10:37:51;25.55;;;23.75;;
11531;SDS011;5822;51.000;5.874;2024-01-16T10:40:19;24.50;;;22.80;;
11531;SDS011;5822;51.000;5.874;2024-01-16T10:43:06;24.38;;;22.63;;
11531;SDS011;5822;51.000;5.874;2024-01-16T10:45:32;25.38;;;23.48;;
11531;SDS011;5822;51.000;5.874;2024-01-16T10:48:05;25.57;;;23.73;;
11531;SDS011;5822;51.000;5.874;2024-01-16T10:50:31;25.65;;;23.75;;
11531;SDS011;5822;51.000;5.874;2024-01-16T10:53:05;25.08;;;23.17;;
11531;SDS011;5822;51.000;5.874;2024-01-16T10:55:31;26.13;;;24.13;;
11531;SDS011;5822;51.000;5.874;2024-01-16T10:58:13;24.35;;;22.52;;
11531;SDS011;5822;51.000;5.874;2024-01-16T11:00:39;24.48;;;22.67;;
11531;SDS011;5822;51.000;5.874;2024-01-16T11:03:11;24.25;;;22.45;;
11531;SDS011;5822;51.000;5.874;2024-01-16T11:05:44;24.23;;;22.43;;
11531;SDS011;5822;51.000;5.874;2024-01-16T11:08:11;25.08;;;23.23;;
11531;SDS011;5822;51.000;5.874;2024-01-16T11:10:41;25.45;;;23.65;;
11531;SDS011;5822;51.000;5.874;2024-01-16T11:13:08;25.20;;;23.40;;
11531;SDS011;5822;51.000;5.874;2024-01-16T11:15:35;25.85;;;23.85;;
11531;SDS011;5822;51.000;5.874;2024-01-16T11:18:03;25.88;;;23.98;;
11531;SDS011;5822;51.000;5.874;2024-01-16T11:20:31;26.20;;;24.20;;
11531;SDS011;5822;51.000;5.874;2024-01-16T11:22:59;25.55;;;23.65;;
11531;SDS011;5822;51.000;5.874;2024-01-16T11:25:32;26.13;;;24.23;;
11531;SDS011;5822;51.000;5.874;2024-01-16T11:28:10;25.90;;;24.00;;
11531;SDS011;5822;51.000;5.874;2024-01-16T11:30:38;26.17;;;24.27;;
11531;SDS011;5822;51.000;5.874;2024-01-16T11:33:04;26.47;;;24.57;;
11531;SDS011;5822;51.000;5.874;2024-01-16T11:35:34;26.20;;;24.30;;
11531;SDS011;5822;51.000;5.874;2024-01-16T11:38:15;27.43;;;25.53;;
11531;SDS011;5822;51.000;5.874;2024-01-16T11:40:41;25.15;;;23.25;;
11531;SDS011;5822;51.000;5.874;2024-01-16T11:46:03;24.17;;;22.38;;
11531;SDS011;5822;51.000;5.874;2024-01-16T11:48:32;24.57;;;22.70;;
11531;SDS011;5822;51.000;5.874;2024-01-16T11:50:58;24.20;;;22.40;;
11531;SDS011;5822;51.000;5.874;2024-01-16T11:53:31;25.90;;;24.00;;
11531;SDS011;5822;51.000;5.874;2024-01-16T11:59:05;25.52;;;23.73;;
11531;SDS011;5822;51.000;5.874;2024-01-16T12:01:34;25.80;;;23.90;;
11531;SDS011;5822;51.000;5.874;2024-01-16T12:04:07;25.65;;;23.65;;
11531;SDS011;5822;51.000;5.874;2024-01-16T12:06:34;25.00;;;23.10;;
11531;SDS011;5822;51.000;5.874;2024-01-16T12:09:11;24.45;;;22.55;;
11531;SDS011;5822;51.000;5.874;2024-01-16T12:11:40;25.38;;;23.48;;
11531;SDS011;5822;51.000;5.874;2024-01-16T12:14:09;24.95;;;23.08;;
11531;SDS011;5822;51.000;5.874;2024-01-16T12:16:35;26.13;;;24.13;;
11531;SDS011;5822;51.000;5.874;2024-01-16T12:19:05;25.58;;;23.60;;
11531;SDS011;5822;51.000;5.874;2024-01-16T12:21:35;24.55;;;22.70;;
11531;SDS011;5822;51.000;5.874;2024-01-16T12:24:10;24.48;;;22.67;;
11531;SDS011;5822;51.000;5.874;2024-01-16T12:26:36;23.67;;;21.80;;
11531;SDS011;5822;51.000;5.874;2024-01-16T12:29:04;23.25;;;21.45;;
11531;SDS011;5822;51.000;5.874;2024-01-16T12:31:33;23.58;;;21.77;;
11531;SDS011;5822;51.000;5.874;2024-01-16T12:34:06;22.88;;;21.08;;
11531;SDS011;5822;51.000;5.874;2024-01-16T12:36:35;22.40;;;20.70;;
11531;SDS011;5822;51.000;5.874;2024-01-16T12:39:01;25.67;;;23.77;;
11531;SDS011;5822;51.000;5.874;2024-01-16T12:41:28;25.73;;;23.83;;
11531;SDS011;5822;51.000;5.874;2024-01-16T12:43:58;25.80;;;23.90;;
11531;SDS011;5822;51.000;5.874;2024-01-16T12:46:24;26.42;;;24.45;;
11531;SDS011;5822;51.000;5.874;2024-01-16T12:48:50;27.00;;;25.00;;
11531;SDS011;5822;51.000;5.874;2024-01-16T12:51:22;25.98;;;24.08;;
11531;SDS011;5822;51.000;5.874;2024-01-16T12:53:50;26.55;;;24.65;;
11531;SDS011;5822;51.000;5.874;2024-01-16T12:56:19;27.25;;;25.30;;
11531;SDS011;5822;51.000;5.874;2024-01-16T12:58:48;26.00;;;24.10;;
11531;SDS011;5822;51.000;5.874;2024-01-16T13:01:26;26.27;;;24.37;;
11531;SDS011;5822;51.000;5.874;2024-01-16T13:03:54;24.67;;;22.80;;
11531;SDS011;5822;51.000;5.874;2024-01-16T13:06:21;24.30;;;22.50;;
11531;SDS011;5822;51.000;5.874;2024-01-16T13:08:48;24.70;;;22.88;;
11531;SDS011;5822;51.000;5.874;2024-01-16T13:11:14;24.20;;;22.40;;
11531;SDS011;5822;51.000;5.874;2024-01-16T13:13:45;24.35;;;22.50;;
11531;SDS011;5822;51.000;5.874;2024-01-16T13:16:12;23.75;;;21.95;;
11531;SDS011;5822;51.000;5.874;2024-01-16T13:18:38;22.95;;;21.15;;
11531;SDS011;5822;51.000;5.874;2024-01-16T13:21:04;22.87;;;21.07;;
11531;SDS011;5822;51.000;5.874;2024-01-16T13:23:30;23.20;;;21.40;;
11531;SDS011;5822;51.000;5.874;2024-01-16T13:25:56;23.40;;;21.50;;
11531;SDS011;5822;51.000;5.874;2024-01-16T13:28:25;23.70;;;21.90;;
11531;SDS011;5822;51.000;5.874;2024-01-16T13:30:52;24.90;;;23.00;;
11531;SDS011;5822;51.000;5.874;2024-01-16T13:33:18;24.98;;;23.02;;
11531;SDS011;5822;51.000;5.874;2024-01-16T13:35:44;25.20;;;23.30;;
11531;SDS011;5822;51.000;5.874;2024-01-16T13:38:14;25.20;;;23.27;;
11531;SDS011;5822;51.000;5.874;2024-01-16T13:40:44;25.40;;;23.40;;
11531;SDS011;5822;51.000;5.874;2024-01-16T13:43:09;24.85;;;22.95;;
11531;SDS011;5822;51.000;5.874;2024-01-16T13:45:37;24.73;;;22.83;;
11531;SDS011;5822;51.000;5.874;2024-01-16T13:48:04;25.17;;;23.33;;
11531;SDS011;5822;51.000;5.874;2024-01-16T13:50:31;24.73;;;22.93;;
11531;SDS011;5822;51.000;5.874;2024-01-16T13:53:00;24.20;;;22.40;;
11531;SDS011;5822;51.000;5.874;2024-01-16T13:55:27;24.43;;;22.63;;
11531;SDS011;5822;51.000;5.874;2024-01-16T13:57:53;23.73;;;21.92;;
11531;SDS011;5822;51.000;5.874;2024-01-16T14:00:19;24.20;;;22.40;;
11531;SDS011;5822;51.000;5.874;2024-01-16T14:02:47;24.50;;;22.65;;
11531;SDS011;5822;51.000;5.874;2024-01-16T14:05:14;24.67;;;22.77;;
11531;SDS011;5822;51.000;5.874;2024-01-16T14:07:42;24.90;;;23.10;;
11531;SDS011;5822;51.000;5.874;2024-01-16T14:10:16;24.67;;;22.77;;
11531;SDS011;5822;51.000;5.874;2024-01-16T14:12:47;25.10;;;23.20;;
11531;SDS011;5822;51.000;5.874;2024-01-16T14:15:14;24.70;;;22.90;;
11531;SDS011;5822;51.000;5.874;2024-01-16T14:17:45;24.75;;;22.95;;
11531;SDS011;5822;51.000;5.874;2024-01-16T14:20:12;22.83;;;21.02;;
11531;SDS011;5822;51.000;5.874;2024-01-16T14:22:39;23.07;;;21.27;;
11531;SDS011;5822;51.000;5.874;2024-01-16T14:25:08;22.50;;;20.80;;
11531;SDS011;5822;51.000;5.874;2024-01-16T14:27:40;22.77;;;21.02;;
11531;SDS011;5822;51.000;5.874;2024-01-16T14:30:07;24.73;;;22.83;;
11531;SDS011;5822;51.000;5.874;2024-01-16T14:32:37;25.08;;;23.17;;
11531;SDS011;5822;51.000;5.874;2024-01-16T14:35:05;25.80;;;23.88;;
11531;SDS011;5822;51.000;5.874;2024-01-16T14:37:32;25.23;;;23.33;;
11531;SDS011;5822;51.000;5.874;2024-01-16T14:39:59;24.73;;;22.83;;
11531;SDS011;5822;51.000;5.874;2024-01-16T14:42:54;24.77;;;22.88;;
11531;SDS011;5822;51.000;5.874;2024-01-16T14:45:24;24.35;;;22.48;;